sensor_id;sensor_type;location;lat;lon;timestamp;pressure;altitude;pressure_sealevel;temperature;humidity
52745;BME280;38637;49.984;20.426;2024-01-06T00:02:01;98431.56;;;1.42;100.00
52745;BME280;38637;49.984;20.426;2024-01-06T00:04:27;98424.50;;;1.41;100.00
52745;BME280;38637;49.984;20.426;2024-01-06T00:06:52;98435.59;;;1.32;100.00
52745;BME280;38637;49.984;20.426;2024-01-06T00:09:17;98424.47;;;1.29;100.00
52745;BME280;38637;49.984;20.426;2024-01-06T00:11:42;98432.75;;;1.27;100.00
52745;BME280;38637;49.984;20.426;2024-01-06T00:14:08;98427.97;;;1.29;100.00
52745;BME280;38637;49.984;20.426;2024-01-06T00:16:33;98422.97;;;1.33;100.00
52745;BME280;38637;49.984;20.426;2024-01-06T00:18:58;98418.41;;;1.33;100.00
52745;BME280;38637;49.984;20.426;2024-01-06T00:21:24;98420.63;;;1.36;100.00
52745;BME280;38637;49.984;20.426;2024-01-06T00:23:50;98410.03;;;1.42;100.00
52745;BME280;38637;49.984;20.426;2024-01-06T00:26:15;98415.41;;;1.42;100.00
52745;BME280;38637;49.984;20.426;2024-01-06T00:28:40;98424.66;;;1.46;100.00
52745;BME280;38637;49.984;20.426;2024-01-06T00:31:06;98411.00;;;1.47;100.00
52745;BME280;38637;49.984;20.426;2024-01-06T00:33:31;98406.19;;;1.49;100.00
52745;BME280;38637;49.984;20.426;2024-01-06T00:35:56;98404.31;;;1.50;100.00
52745;BME280;38637;49.984;20.426;2024-01-06T00:38:22;98396.72;;;1.47;100.00
52745;BME280;38637;49.984;20.426;2024-01-06T00:40:47;98409.13;;;1.48;100.00
52745;BME280;38637;49.984;20.426;2024-01-06T00:43:12;98406.66;;;1.46;100.00
52745;BME280;38637;49.984;20.426;2024-01-06T00:45:37;98400.91;;;1.43;100.00
52745;BME280;38637;49.984;20.426;2024-01-06T00:48:03;98407.47;;;1.47;100.00
52745;BME280;38637;49.984;20.426;2024-01-06T00:50:29;98404.56;;;1.48;100.00
52745;BME280;38637;49.984;20.426;2024-01-06T00:52:54;98404.09;;;1.51;100.00
52745;BME280;38637;49.984;20.426;2024-01-06T00:55:20;98402.84;;;1.54;100.00
52745;BME280;38637;49.984;20.426;2024-01-06T00:57:45;98400.88;;;1.61;100.00
52745;BME280;38637;49.984;20.426;2024-01-06T01:00:11;98395.84;;;1.65;100.00
52745;BME280;38637;49.984;20.426;2024-01-06T01:02:37;98385.69;;;1.67;100.00
52745;BME280;38637;49.984;20.426;2024-01-06T01:05:02;98391.88;;;1.67;100.00
52745;BME280;38637;49.984;20.426;2024-01-06T01:07:27;98382.53;;;1.70;100.00
52745;BME280;38637;49.984;20.426;2024-01-06T01:09:53;98380.44;;;1.72;100.00
52745;BME280;38637;49.984;20.426;2024-01-06T01:12:18;98369.31;;;1.68;100.00
52745;BME280;38637;49.984;20.426;2024-01-06T01:14:43;98375.75;;;1.67;100.00
52745;BME280;38637;49.984;20.426;2024-01-06T01:17:09;98371.88;;;1.63;100.00
52745;BME280;38637;49.984;20.426;2024-01-06T01:19:34;98360.16;;;1.57;100.00
52745;BME280;38637;49.984;20.426;2024-01-06T01:22:00;98369.41;;;1.61;100.00
52745;BME280;38637;49.984;20.426;2024-01-06T01:24:26;98356.31;;;1.65;100.00
52745;BME280;38637;49.984;20.426;2024-01-06T01:26:51;98363.09;;;1.68;100.00
52745;BME280;38637;49.984;20.426;2024-01-06T01:29:16;98348.84;;;1.67;100.00
52745;BME280;38637;49.984;20.426;2024-01-06T01:31:42;98364.38;;;1.65;100.00
52745;BME280;38637;49.984;20.426;2024-01-06T01:34:07;98356.31;;;1.65;100.00
52745;BME280;38637;49.984;20.426;2024-01-06T01:36:32;98371.31;;;1.73;100.00
52745;BME280;38637;49.984;20.426;2024-01-06T01:38:58;98359.94;;;1.71;100.00
52745;BME280;38637;49.984;20.426;2024-01-06T01:41:24;98377.38;;;1.68;100.00
52745;BME280;38637;49.984;20.426;2024-01-06T01:43:50;98378.22;;;1.69;100.00
52745;BME280;38637;49.984;20.426;2024-01-06T01:46:26;98377.75;;;1.72;100.00
52745;BME280;38637;49.984;20.426;2024-01-06T01:48:52;98368.03;;;1.71;100.00
52745;BME280;38637;49.984;20.426;2024-01-06T01:51:19;98360.66;;;1.66;100.00
52745;BME280;38637;49.984;20.426;2024-01-06T01:53:44;98374.81;;;1.73;100.00
52745;BME280;38637;49.984;20.426;2024-01-06T01:56:10;98368.16;;;1.76;100.00
52745;BME280;38637;49.984;20.426;2024-01-06T01:58:36;98369.00;;;1.76;100.00
52745;BME280;38637;49.984;20.426;2024-01-06T02:01:02;98368.16;;;1.76;100.00
52745;BME280;38637;49.984;20.426;2024-01-06T02:03:29;98372.28;;;1.78;100.00
52745;BME280;38637;49.984;20.426;2024-01-06T02:05:55;98370.16;;;1.80;100.00
52745;BME280;38637;49.984;20.426;2024-01-06T02:08:20;98349.19;;;1.71;100.00
52745;BME280;38637;49.984;20.426;2024-01-06T02:10:46;98322.00;;;1.49;100.00
52745;BME280;38637;49.984;20.426;2024-01-06T02:13:11;98347.91;;;1.73;100.00
52745;BME280;38637;49.984;20.426;2024-01-06T02:15:37;98353.66;;;1.77;100.00
52745;BME280;38637;49.984;20.426;2024-01-06T02:18:03;98353.91;;;1.75;100.00
52745;BME280;38637;49.984;20.426;2024-01-06T02:20:30;98361.50;;;1.78;100.00
52745;BME280;38637;49.984;20.426;2024-01-06T02:22:55;98352.94;;;1.70;100.00
52745;BME280;38637;49.984;20.426;2024-01-06T02:25:22;98352.84;;;1.76;100.00
52745;BME280;38637;49.984;20.426;2024-01-06T02:27:47;98347.47;;;1.76;100.00
52745;BME280;38637;49.984;20.426;2024-01-06T02:30:13;98353.66;;;1.77;100.00
52745;BME280;38637;49.984;20.426;2024-01-06T02:32:38;98340.19;;;1.77;100.00
52745;BME280;38637;49.984;20.426;2024-01-06T02:35:03;98332.13;;;1.77;100.00
52745;BME280;38637;49.984;20.426;2024-01-06T02:37:28;98345.47;;;1.83;100.00
52745;BME280;38637;49.984;20.426;2024-01-06T02:39:54;98334.13;;;1.81;100.00
52745;BME280;38637;49.984;20.426;2024-01-06T02:42:19;98336.22;;;1.79;100.00
52745;BME280;38637;49.984;20.426;2024-01-06T02:44:44;98346.78;;;1.81;100.00
52745;BME280;38637;49.984;20.426;2024-01-06T02:47:10;98330.84;;;1.79;100.00
52745;BME280;38637;49.984;20.426;2024-01-06T02:49:35;98342.31;;;1.87;100.00
52745;BME280;38637;49.984;20.426;2024-01-06T02:52:00;98342.91;;;1.89;100.00
52745;BME280;38637;49.984;20.426;2024-01-06T02:54:25;98345.63;;;1.89;100.00
52745;BME280;38637;49.984;20.426;2024-01-06T02:56:51;98348.66;;;1.92;100.00
52745;BME280;38637;49.984;20.426;2024-01-06T02:59:16;98340.00;;;1.90;100.00
52745;BME280;38637;49.984;20.426;2024-01-06T03:01:41;98354.28;;;1.91;100.00
52745;BME280;38637;49.984;20.426;2024-01-06T03:04:06;98349.13;;;1.89;100.00
52745;BME280;38637;49.984;20.426;2024-01-06T03:06:32;98357.19;;;1.89;100.00
52745;BME280;38637;49.984;20.426;2024-01-06T03:08:58;98356.97;;;1.91;100.00
52745;BME280;38637;49.984;20.426;2024-01-06T03:11:23;98353.47;;;1.90;100.00
52745;BME280;38637;49.984;20.426;2024-01-06T03:13:48;98358.25;;;1.88;100.00
52745;BME280;38637;49.984;20.426;2024-01-06T03:16:13;98352.28;;;1.86;100.00
52745;BME280;38637;49.984;20.426;2024-01-06T03:18:39;98348.56;;;1.87;100.00
52745;BME280;38637;49.984;20.426;2024-01-06T03:21:04;98348.78;;;1.86;100.00
52745;BME280;38637;49.984;20.426;2024-01-06T03:23:29;98343.63;;;1.84;100.00
52745;BME280;38637;49.984;20.426;2024-01-06T03:25:54;98350.66;;;1.85;100.00
52745;BME280;38637;49.984;20.426;2024-01-06T03:28:20;98340.69;;;1.86;100.00
52745;BME280;38637;49.984;20.426;2024-01-06T03:30:45;98348.56;;;1.87;100.00
52745;BME280;38637;49.984;20.426;2024-01-06T03:33:10;98349.94;;;1.90;100.00
52745;BME280;38637;49.984;20.426;2024-01-06T03:35:37;98339.78;;;1.92;100.00
52745;BME280;38637;49.984;20.426;2024-01-06T03:38:02;98340.59;;;1.92;100.00
52745;BME280;38637;49.984;20.426;2024-01-06T03:40:28;98334.38;;;1.92;100.00
52745;BME280;38637;49.984;20.426;2024-01-06T03:42:53;98342.72;;;1.90;100.00
52745;BME280;38637;49.984;20.426;2024-01-06T03:45:19;98348.31;;;1.89;100.00
52745;BME280;38637;49.984;20.426;2024-01-06T03:47:44;98340.22;;;1.89;100.00
52745;BME280;38637;49.984;20.426;2024-01-06T03:50:09;98331.09;;;1.90;100.00
52745;BME280;38637;49.984;20.426;2024-01-06T03:52:34;98336.25;;;1.91;100.00
52745;BME280;38637;49.984;20.426;2024-01-06T03:55:00;98332.75;;;1.91;100.00
52745;BME280;38637;49.984;20.426;2024-01-06T03:57:25;98324.91;;;1.89;100.00
52745;BME280;38637;49.984;20.426;2024-01-06T03:59:50;98318.34;;;1.85;100.00
52745;BME280;38637;49.984;20.426;2024-01-06T04:02:16;98321.63;;;1.87;100.00
52745;BME280;38637;49.984;20.426;2024-01-06T04:04:41;98324.53;;;1.86;100.00
52745;BME280;38637;49.984;20.426;2024-01-06T04:07:06;98324.53;;;1.86;100.00
52745;BME280;38637;49.984;20.426;2024-01-06T04:09:32;98320.78;;;1.87;100.00
52745;BME280;38637;49.984;20.426;2024-01-06T04:11:57;98335.09;;;1.87;100.00
52745;BME280;38637;49.984;20.426;2024-01-06T04:14:22;98332.88;;;1.84;100.00
52745;BME280;38637;49.984;20.426;2024-01-06T04:16:48;98331.56;;;1.87;100.00
52745;BME280;38637;49.984;20.426;2024-01-06T04:19:13;98324.06;;;1.89;100.00
52745;BME280;38637;49.984;20.426;2024-01-06T04:21:40;98321.25;;;1.83;100.00
52745;BME280;38637;49.984;20.426;2024-01-06T04:24:05;98338.25;;;1.84;100.00
52745;BME280;38637;49.984;20.426;2024-01-06T04:26:30;98325.97;;;1.88;100.00
52745;BME280;38637;49.984;20.426;2024-01-06T04:28:56;98326.78;;;1.89;100.00
52745;BME280;38637;49.984;20.426;2024-01-06T04:31:21;98334.38;;;1.92;100.00
52745;BME280;38637;49.984;20.426;2024-01-06T04:33:46;98338.72;;;1.93;100.00
52745;BME280;38637;49.984;20.426;2024-01-06T04:36:11;98338.50;;;1.94;100.00
52745;BME280;38637;49.984;20.426;2024-01-06T04:38:37;98327.47;;;1.96;100.00
52745;BME280;38637;49.984;20.426;2024-01-06T04:41:02;98332.41;;;1.99;100.00
52745;BME280;38637;49.984;20.426;2024-01-06T04:43:27;98328.88;;;1.98;100.00
52745;BME280;38637;49.984;20.426;2024-01-06T04:45:53;98327.47;;;1.96;100.00
52745;BME280;38637;49.984;20.426;2024-01-06T04:48:18;98325.84;;;1.95;100.00
52745;BME280;38637;49.984;20.426;2024-01-06T04:50:43;98327.72;;;1.94;100.00
52745;BME280;38637;49.984;20.426;2024-01-06T04:53:09;98313.31;;;1.89;100.00
52745;BME280;38637;49.984;20.426;2024-01-06T04:55:34;98325.63;;;1.96;100.00
52745;BME280;38637;49.984;20.426;2024-01-06T04:57:59;98326.66;;;1.95;100.00
52745;BME280;38637;49.984;20.426;2024-01-06T05:00:25;98329.13;;;1.97;100.00
52745;BME280;38637;49.984;20.426;2024-01-06T05:02:51;98335.94;;;1.99;100.00
52745;BME280;38637;49.984;20.426;2024-01-06T05:05:16;98316.13;;;1.82;100.00
52745;BME280;38637;49.984;20.426;2024-01-06T05:07:41;98326.56;;;2.02;100.00
52745;BME280;38637;49.984;20.426;2024-01-06T05:10:07;98334.41;;;2.03;100.00
52745;BME280;38637;49.984;20.426;2024-01-06T05:12:32;98346.72;;;1.99;100.00
52745;BME280;38637;49.984;20.426;2024-01-06T05:14:58;98365.31;;;2.01;100.00
52745;BME280;38637;49.984;20.426;2024-01-06T05:17:23;98342.81;;;1.95;100.00
52745;BME280;38637;49.984;20.426;2024-01-06T05:19:48;98344.00;;;1.99;100.00
52745;BME280;38637;49.984;20.426;2024-01-06T05:22:13;98346.25;;;2.02;100.00
52745;BME280;38637;49.984;20.426;2024-01-06T05:24:39;98353.25;;;2.03;100.00
52745;BME280;38637;49.984;20.426;2024-01-06T05:27:04;98355.94;;;2.03;100.00
52745;BME280;38637;49.984;20.426;2024-01-06T05:29:29;98351.38;;;2.04;100.00
52745;BME280;38637;49.984;20.426;2024-01-06T05:31:54;98355.25;;;1.96;100.00
52745;BME280;38637;49.984;20.426;2024-01-06T05:34:20;98354.44;;;2.07;100.00
52745;BME280;38637;49.984;20.426;2024-01-06T05:36:45;98356.91;;;2.09;100.00
52745;BME280;38637;49.984;20.426;2024-01-06T05:39:10;98361.47;;;2.09;100.00
52745;BME280;38637;49.984;20.426;2024-01-06T05:41:40;98367.41;;;1.99;100.00
52745;BME280;38637;49.984;20.426;2024-01-06T05:44:05;98381.25;;;2.02;100.00
52745;BME280;38637;49.984;20.426;2024-01-06T05:46:31;98394.78;;;1.96;100.00
52745;BME280;38637;49.984;20.426;2024-01-06T05:48:56;98389.97;;;1.86;100.00
52745;BME280;38637;49.984;20.426;2024-01-06T05:51:22;98393.00;;;1.78;100.00
52745;BME280;38637;49.984;20.426;2024-01-06T05:53:47;98365.28;;;1.59;100.00
52745;BME280;38637;49.984;20.426;2024-01-06T05:56:24;98376.91;;;1.71;100.00
52745;BME280;38637;49.984;20.426;2024-01-06T05:58:51;98387.38;;;1.79;100.00
52745;BME280;38637;49.984;20.426;2024-01-06T06:01:16;98376.59;;;1.79;100.00
52745;BME280;38637;49.984;20.426;2024-01-06T06:03:42;98382.69;;;1.87;100.00
52745;BME280;38637;49.984;20.426;2024-01-06T06:06:08;98389.28;;;1.91;100.00
52745;BME280;38637;49.984;20.426;2024-01-06T06:08:33;98388.59;;;1.95;100.00
52745;BME280;38637;49.984;20.426;2024-01-06T06:10:58;98393.50;;;1.98;100.00
52745;BME280;38637;49.984;20.426;2024-01-06T06:13:29;98403.00;;;2.01;100.00
52745;BME280;38637;49.984;20.426;2024-01-06T06:15:54;98395.38;;;1.98;100.00
52745;BME280;38637;49.984;20.426;2024-01-06T06:18:20;98390.94;;;2.03;100.00
52745;BME280;38637;49.984;20.426;2024-01-06T06:20:45;98385.31;;;2.05;100.00
52745;BME280;38637;49.984;20.426;2024-01-06T06:23:10;98402.53;;;2.04;100.00
52745;BME280;38637;49.984;20.426;2024-01-06T06:25:38;98410.94;;;1.96;100.00
52745;BME280;38637;49.984;20.426;2024-01-06T06:28:03;98399.59;;;1.94;100.00
52745;BME280;38637;49.984;20.426;2024-01-06T06:30:29;98403.47;;;1.98;100.00
52745;BME280;38637;49.984;20.426;2024-01-06T06:32:54;98399.69;;;1.99;100.00
52745;BME280;38637;49.984;20.426;2024-01-06T06:35:19;98400.91;;;2.03;100.00
52745;BME280;38637;49.984;20.426;2024-01-06T06:37:44;98407.91;;;2.04;100.00
52745;BME280;38637;49.984;20.426;2024-01-06T06:40:10;98407.31;;;2.02;100.00
52745;BME280;38637;49.984;20.426;2024-01-06T06:42:35;98401.94;;;2.02;100.00
52745;BME280;38637;49.984;20.426;2024-01-06T06:45:00;98403.00;;;2.01;100.00
52745;BME280;38637;49.984;20.426;2024-01-06T06:47:26;98403.34;;;2.04;100.00
52745;BME280;38637;49.984;20.426;2024-01-06T06:49:51;98402.31;;;2.05;100.00
52745;BME280;38637;49.984;20.426;2024-01-06T06:52:16;98416.13;;;2.09;100.00
52745;BME280;38637;49.984;20.426;2024-01-06T06:54:42;98407.00;;;2.10;100.00
52745;BME280;38637;49.984;20.426;2024-01-06T06:57:07;98416.50;;;2.13;100.00
52745;BME280;38637;49.984;20.426;2024-01-06T06:59:32;98407.00;;;2.10;100.00
52745;BME280;38637;49.984;20.426;2024-01-06T07:01:57;98398.31;;;2.08;100.00
52745;BME280;38637;49.984;20.426;2024-01-06T07:04:23;98402.44;;;2.11;100.00
52745;BME280;38637;49.984;20.426;2024-01-06T07:06:48;98403.72;;;2.08;100.00
52745;BME280;38637;49.984;20.426;2024-01-06T07:09:14;98401.63;;;2.10;100.00
52745;BME280;38637;49.984;20.426;2024-01-06T07:11:39;98405.13;;;2.11;100.00
52745;BME280;38637;49.984;20.426;2024-01-06T07:14:04;98410.66;;;2.16;100.00
52745;BME280;38637;49.984;20.426;2024-01-06T07:16:29;98407.97;;;2.16;100.00
52745;BME280;38637;49.984;20.426;2024-01-06T07:18:55;98406.22;;;2.21;100.00
52745;BME280;38637;49.984;20.426;2024-01-06T07:21:20;98395.78;;;2.25;100.00
52745;BME280;38637;49.984;20.426;2024-01-06T07:23:45;98399.19;;;2.32;100.00
52745;BME280;38637;49.984;20.426;2024-01-06T07:26:10;98400.59;;;2.35;100.00
52745;BME280;38637;49.984;20.426;2024-01-06T07:28:36;98412.34;;;2.40;100.00
52745;BME280;38637;49.984;20.426;2024-01-06T07:31:01;98400.28;;;2.43;100.00
52745;BME280;38637;49.984;20.426;2024-01-06T07:33:26;98404.13;;;2.47;100.00
52745;BME280;38637;49.984;20.426;2024-01-06T07:35:51;98411.16;;;2.48;100.00
52745;BME280;38637;49.984;20.426;2024-01-06T07:38:17;98412.09;;;2.53;100.00
52745;BME280;38637;49.984;20.426;2024-01-06T07:40:42;98414.94;;;2.59;100.00
52745;BME280;38637;49.984;20.426;2024-01-06T07:43:09;98423.97;;;2.64;100.00
52745;BME280;38637;49.984;20.426;2024-01-06T07:45:34;98414.25;;;2.63;100.00
52745;BME280;38637;49.984;20.426;2024-01-06T07:48:00;98424.19;;;2.63;100.00
52745;BME280;38637;49.984;20.426;2024-01-06T07:50:26;98425.03;;;2.63;100.00
52745;BME280;38637;49.984;20.426;2024-01-06T07:52:51;98422.53;;;2.62;100.00
52745;BME280;38637;49.984;20.426;2024-01-06T07:55:17;98427.81;;;2.57;100.00
52745;BME280;38637;49.984;20.426;2024-01-06T07:57:43;98435.41;;;2.60;100.00
52745;BME280;38637;49.984;20.426;2024-01-06T08:00:10;98432.38;;;2.56;100.00
52745;BME280;38637;49.984;20.426;2024-01-06T08:02:35;98435.66;;;2.58;100.00
52745;BME280;38637;49.984;20.426;2024-01-06T08:05:01;98425.47;;;2.60;100.00
52745;BME280;38637;49.984;20.426;2024-01-06T08:07:26;98429.34;;;2.64;100.00
52745;BME280;38637;49.984;20.426;2024-01-06T08:09:51;98427.59;;;2.70;100.00
52745;BME280;38637;49.984;20.426;2024-01-06T08:12:16;98429.56;;;2.74;100.00
52745;BME280;38637;49.984;20.426;2024-01-06T08:14:42;98432.41;;;2.80;100.00
52745;BME280;38637;49.984;20.426;2024-01-06T08:17:07;98434.03;;;2.81;100.00
52745;BME280;38637;49.984;20.426;2024-01-06T08:19:32;98430.78;;;2.79;100.00
52745;BME280;38637;49.984;20.426;2024-01-06T08:21:58;98441.66;;;2.84;100.00
52745;BME280;38637;49.984;20.426;2024-01-06T08:24:24;98444.34;;;2.84;100.00
52745;BME280;38637;49.984;20.426;2024-01-06T08:26:50;98444.34;;;2.84;100.00
52745;BME280;38637;49.984;20.426;2024-01-06T08:29:15;98450.56;;;2.84;100.00
52745;BME280;38637;49.984;20.426;2024-01-06T08:31:41;98453.84;;;2.86;100.00
52745;BME280;38637;49.984;20.426;2024-01-06T08:34:07;98450.94;;;2.88;100.00
52745;BME280;38637;49.984;20.426;2024-01-06T08:36:33;98456.88;;;2.90;100.00
52745;BME280;38637;49.984;20.426;2024-01-06T08:38:59;98460.31;;;2.97;100.00
52745;BME280;38637;49.984;20.426;2024-01-06T08:41:24;98452.91;;;3.04;100.00
52745;BME280;38637;49.984;20.426;2024-01-06T08:43:49;98457.69;;;3.14;100.00
52745;BME280;38637;49.984;20.426;2024-01-06T08:46:15;98455.69;;;3.33;100.00
52745;BME280;38637;49.984;20.426;2024-01-06T08:48:40;98453.91;;;3.50;100.00
52745;BME280;38637;49.984;20.426;2024-01-06T08:51:05;98450.59;;;3.60;100.00
52745;BME280;38637;49.984;20.426;2024-01-06T08:53:31;98442.44;;;3.72;100.00
52745;BME280;38637;49.984;20.426;2024-01-06T08:55:56;98447.00;;;3.83;100.00
52745;BME280;38637;49.984;20.426;2024-01-06T08:58:21;98443.91;;;3.91;100.00
52745;BME280;38637;49.984;20.426;2024-01-06T09:00:47;98445.66;;;3.85;100.00
52745;BME280;38637;49.984;20.426;2024-01-06T09:03:12;98462.63;;;3.81;100.00
52745;BME280;38637;49.984;20.426;2024-01-06T09:05:38;98453.38;;;3.77;100.00
52745;BME280;38637;49.984;20.426;2024-01-06T09:08:04;98445.25;;;3.77;100.00
52745;BME280;38637;49.984;20.426;2024-01-06T09:10:29;98439.88;;;3.77;100.00
52745;BME280;38637;49.984;20.426;2024-01-06T09:12:54;98444.91;;;3.73;100.00
52745;BME280;38637;49.984;20.426;2024-01-06T09:15:20;98450.06;;;3.75;100.00
52745;BME280;38637;49.984;20.426;2024-01-06T09:17:45;98450.88;;;3.75;100.00
52745;BME280;38637;49.984;20.426;2024-01-06T09:20:11;98443.25;;;3.72;100.00
52745;BME280;38637;49.984;20.426;2024-01-06T09:22:36;98440.34;;;3.74;100.00
52745;BME280;38637;49.984;20.426;2024-01-06T09:25:01;98435.97;;;3.73;100.00
52745;BME280;38637;49.984;20.426;2024-01-06T09:27:28;98438.22;;;3.64;100.00
52745;BME280;38637;49.984;20.426;2024-01-06T09:29:53;98448.13;;;3.58;100.00
52745;BME280;38637;49.984;20.426;2024-01-06T09:32:19;98447.44;;;3.51;100.00
52745;BME280;38637;49.984;20.426;2024-01-06T09:34:44;98438.53;;;3.51;100.00
52745;BME280;38637;49.984;20.426;2024-01-06T09:37:10;98442.84;;;3.52;100.00
52745;BME280;38637;49.984;20.426;2024-01-06T09:39:35;98442.84;;;3.52;100.00
52745;BME280;38637;49.984;20.426;2024-01-06T09:42:00;98453.09;;;3.50;100.00
52745;BME280;38637;49.984;20.426;2024-01-06T09:44:26;98451.41;;;3.49;100.00
52745;BME280;38637;49.984;20.426;2024-01-06T09:46:52;98445.47;;;3.47;100.00
52745;BME280;38637;49.984;20.426;2024-01-06T09:49:22;98450.03;;;3.46;100.00
52745;BME280;38637;49.984;20.426;2024-01-06T09:51:49;98441.72;;;3.36;100.00
52745;BME280;38637;49.984;20.426;2024-01-06T09:54:22;98449.13;;;3.40;100.00
52745;BME280;38637;49.984;20.426;2024-01-06T09:56:48;98437.06;;;3.31;100.00
52745;BME280;38637;49.984;20.426;2024-01-06T09:59:14;98439.84;;;3.36;100.00
52745;BME280;38637;49.984;20.426;2024-01-06T10:01:41;98446.63;;;3.39;100.00
52745;BME280;38637;49.984;20.426;2024-01-06T10:04:06;98441.59;;;3.42;100.00
52745;BME280;38637;49.984;20.426;2024-01-06T10:06:32;98439.25;;;3.46;100.00
52745;BME280;38637;49.984;20.426;2024-01-06T10:08:58;98445.81;;;3.50;100.00
52745;BME280;38637;49.984;20.426;2024-01-06T10:11:23;98433.94;;;3.51;100.00
52745;BME280;38637;49.984;20.426;2024-01-06T10:13:49;98431.50;;;3.50;100.00
52745;BME280;38637;49.984;20.426;2024-01-06T10:16:15;98430.19;;;3.52;100.00
52745;BME280;38637;49.984;20.426;2024-01-06T10:18:41;98433.72;;;3.53;100.00
52745;BME280;38637;49.984;20.426;2024-01-06T10:21:06;98432.06;;;3.52;100.00
52745;BME280;38637;49.984;20.426;2024-01-06T10:23:33;98428.78;;;3.50;100.00
52745;BME280;38637;49.984;20.426;2024-01-06T10:25:58;98435.81;;;3.51;100.00
52745;BME280;38637;49.984;20.426;2024-01-06T10:28:24;98431.22;;;3.51;100.00
52745;BME280;38637;49.984;20.426;2024-01-06T10:30:53;98431.81;;;3.53;100.00
52745;BME280;38637;49.984;20.426;2024-01-06T10:33:20;98418.81;;;3.50;100.00
52745;BME280;38637;49.984;20.426;2024-01-06T10:35:46;98426.41;;;3.65;100.00
52745;BME280;38637;49.984;20.426;2024-01-06T10:38:12;98427.88;;;3.73;100.00
52745;BME280;38637;49.984;20.426;2024-01-06T10:40:38;98423.19;;;3.80;100.00
52745;BME280;38637;49.984;20.426;2024-01-06T10:43:05;98408.22;;;3.89;100.00
52745;BME280;38637;49.984;20.426;2024-01-06T10:45:30;98413.00;;;3.99;100.00
52745;BME280;38637;49.984;20.426;2024-01-06T10:47:56;98412.03;;;4.05;100.00
52745;BME280;38637;49.984;20.426;2024-01-06T10:50:23;98417.75;;;4.08;100.00
52745;BME280;38637;49.984;20.426;2024-01-06T10:52:48;98419.16;;;4.11;100.00
52745;BME280;38637;49.984;20.426;2024-01-06T10:55:18;98414.25;;;4.08;100.00
52745;BME280;38637;49.984;20.426;2024-01-06T10:57:46;98411.88;;;4.11;100.00
52745;BME280;38637;49.984;20.426;2024-01-06T11:00:12;98407.28;;;4.12;100.00
52745;BME280;38637;49.984;20.426;2024-01-06T11:02:39;98413.59;;;4.18;100.00
52745;BME280;38637;49.984;20.426;2024-01-06T11:05:04;98410.41;;;4.21;100.00
52745;BME280;38637;49.984;20.426;2024-01-06T11:07:34;98408.78;;;4.20;100.00
52745;BME280;38637;49.984;20.426;2024-01-06T11:10:15;98405.81;;;4.21;100.00
52745;BME280;38637;49.984;20.426;2024-01-06T11:12:44;98398.03;;;4.25;100.00
52745;BME280;38637;49.984;20.426;2024-01-06T11:15:09;98400.50;;;4.26;100.00
52745;BME280;38637;49.984;20.426;2024-01-06T11:17:54;98398.84;;;4.25;100.00
52745;BME280;38637;49.984;20.426;2024-01-06T11:20:24;98404.50;;;4.24;100.00
52745;BME280;38637;49.984;20.426;2024-01-06T11:22:50;98394.34;;;4.14;100.00
52745;BME280;38637;49.984;20.426;2024-01-06T11:25:20;98401.16;;;4.17;100.00
52745;BME280;38637;49.984;20.426;2024-01-06T11:27:49;98390.25;;;4.11;100.00
52745;BME280;38637;49.984;20.426;2024-01-06T11:30:22;98404.56;;;4.12;100.00
52745;BME280;38637;49.984;20.426;2024-01-06T11:32:50;98408.03;;;4.07;100.00
52745;BME280;38637;49.984;20.426;2024-01-06T11:35:18;98403.81;;;4.00;100.00
52745;BME280;38637;49.984;20.426;2024-01-06T11:40:22;98392.03;;;3.89;100.00
52745;BME280;38637;49.984;20.426;2024-01-06T11:43:06;98406.91;;;3.91;100.00
52745;BME280;38637;49.984;20.426;2024-01-06T11:45:33;98403.63;;;3.89;100.00
52745;BME280;38637;49.984;20.426;2024-01-06T11:48:03;98406.25;;;3.84;100.00
52745;BME280;38637;49.984;20.426;2024-01-06T11:50:34;98402.13;;;3.82;100.00
52745;BME280;38637;49.984;20.426;2024-01-06T11:52:59;98398.63;;;3.81;100.00
52745;BME280;38637;49.984;20.426;2024-01-06T11:55:25;98408.59;;;3.81;100.00
52745;BME280;38637;49.984;20.426;2024-01-06T11:57:56;98416.94;;;3.79;100.00
52745;BME280;38637;49.984;20.426;2024-01-06T12:00:23;98413.09;;;3.75;100.00
52745;BME280;38637;49.984;20.426;2024-01-06T12:02:48;98421.44;;;3.74;100.00
52745;BME280;38637;49.984;20.426;2024-01-06T12:05:15;98417.34;;;3.71;100.00
52745;BME280;38637;49.984;20.426;2024-01-06T12:07:41;98413.13;;;3.63;100.00
52745;BME280;38637;49.984;20.426;2024-01-06T12:10:10;98431.69;;;3.60;100.00
52745;BME280;38637;49.984;20.426;2024-01-06T12:12:37;98426.53;;;3.58;100.00
52745;BME280;38637;49.984;20.426;2024-01-06T12:15:03;98421.97;;;3.59;100.00
52745;BME280;38637;49.984;20.426;2024-01-06T12:17:30;98433.31;;;3.61;100.00
52745;BME280;38637;49.984;20.426;2024-01-06T12:19:55;98421.22;;;3.63;100.00
52745;BME280;38637;49.984;20.426;2024-01-06T12:22:21;98422.78;;;3.59;100.00
52745;BME280;38637;49.984;20.426;2024-01-06T12:24:49;98428.16;;;3.59;100.00
52745;BME280;38637;49.984;20.426;2024-01-06T12:27:16;98430.88;;;3.59;100.00
52745;BME280;38637;49.984;20.426;2024-01-06T12:29:42;98436.28;;;3.59;100.00
52745;BME280;38637;49.984;20.426;2024-01-06T12:32:09;98436.50;;;3.58;100.00
52745;BME280;38637;49.984;20.426;2024-01-06T12:34:34;98445.66;;;3.57;100.00
52745;BME280;38637;49.984;20.426;2024-01-06T12:37:00;98445.06;;;3.55;100.00
52745;BME280;38637;49.984;20.426;2024-01-06T12:39:30;98448.03;;;3.53;100.00
52745;BME280;38637;49.984;20.426;2024-01-06T12:41:56;98451.53;;;3.54;100.00
52745;BME280;38637;49.984;20.426;2024-01-06T12:44:22;98445.00;;;3.50;100.00
52745;BME280;38637;49.984;20.426;2024-01-06T12:46:48;98456.00;;;3.48;100.00